sensor_id;sensor_type;location;lat;lon;timestamp;temperature;humidity
18593;DHT22;9426;54.118;17.948;2023-02-01T00:00:04;1.20;99.90
18593;DHT22;9426;54.118;17.948;2023-02-01T00:05:29;1.20;99.90
18593;DHT22;9426;54.118;17.948;2023-02-01T00:10:58;1.30;99.90
18593;DHT22;9426;54.118;17.948;2023-02-01T00:16:24;1.40;99.90
18593;DHT22;9426;54.118;17.948;2023-02-01T00:21:50;1.70;99.90
18593;DHT22;9426;54.118;17.948;2023-02-01T00:27:13;2.00;99.90
18593;DHT22;9426;54.118;17.948;2023-02-01T00:32:42;2.10;99.90
18593;DHT22;9426;54.118;17.948;2023-02-01T00:38:07;2.10;99.90
18593;DHT22;9426;54.118;17.948;2023-02-01T00:43:31;1.90;99.90
18593;DHT22;9426;54.118;17.948;2023-02-01T00:48:55;2.00;99.90
18593;DHT22;9426;54.118;17.948;2023-02-01T00:54:22;2.00;99.90
18593;DHT22;9426;54.118;17.948;2023-02-01T00:59:46;1.90;99.90
18593;DHT22;9426;54.118;17.948;2023-02-01T01:05:10;1.70;99.90
18593;DHT22;9426;54.118;17.948;2023-02-01T01:10:36;1.80;99.90
18593;DHT22;9426;54.118;17.948;2023-02-01T01:16:00;1.90;99.90
18593;DHT22;9426;54.118;17.948;2023-02-01T01:21:26;1.70;99.90
18593;DHT22;9426;54.118;17.948;2023-02-01T01:26:51;1.60;99.90
18593;DHT22;9426;54.118;17.948;2023-02-01T01:32:15;1.60;99.90
18593;DHT22;9426;54.118;17.948;2023-02-01T01:37:39;1.50;99.90
18593;DHT22;9426;54.118;17.948;2023-02-01T01:43:13;1.50;99.90
18593;DHT22;9426;54.118;17.948;2023-02-01T01:48:37;1.70;99.90
18593;DHT22;9426;54.118;17.948;2023-02-01T01:54:03;1.90;99.90
18593;DHT22;9426;54.118;17.948;2023-02-01T01:59:31;2.00;99.90
18593;DHT22;9426;54.118;17.948;2023-02-01T02:04:55;2.00;99.90
18593;DHT22;9426;54.118;17.948;2023-02-01T02:10:20;2.10;99.90
18593;DHT22;9426;54.118;17.948;2023-02-01T02:16:22;2.20;99.90
18593;DHT22;9426;54.118;17.948;2023-02-01T02:22:00;2.10;99.90
18593;DHT22;9426;54.118;17.948;2023-02-01T02:27:38;2.10;99.90
18593;DHT22;9426;54.118;17.948;2023-02-01T02:33:47;2.10;99.90
18593;DHT22;9426;54.118;17.948;2023-02-01T02:39:23;2.00;99.90
18593;DHT22;9426;54.118;17.948;2023-02-01T02:44:56;1.90;99.90
18593;DHT22;9426;54.118;17.948;2023-02-01T02:50:44;1.80;99.90
18593;DHT22;9426;54.118;17.948;2023-02-01T02:56:27;1.70;99.90
18593;DHT22;9426;54.118;17.948;2023-02-01T03:02:08;1.70;99.90
18593;DHT22;9426;54.118;17.948;2023-02-01T03:08:00;1.60;99.90
18593;DHT22;9426;54.118;17.948;2023-02-01T03:13:37;1.50;99.90
18593;DHT22;9426;54.118;17.948;2023-02-01T03:19:03;1.60;99.90
18593;DHT22;9426;54.118;17.948;2023-02-01T03:24:34;1.70;99.90
18593;DHT22;9426;54.118;17.948;2023-02-01T03:30:04;1.90;99.90
18593;DHT22;9426;54.118;17.948;2023-02-01T03:35:33;2.00;99.90
18593;DHT22;9426;54.118;17.948;2023-02-01T03:41:08;2.00;99.90
18593;DHT22;9426;54.118;17.948;2023-02-01T03:46:37;2.00;99.90
18593;DHT22;9426;54.118;17.948;2023-02-01T03:52:02;1.90;99.90
18593;DHT22;9426;54.118;17.948;2023-02-01T03:57:32;2.00;99.90
18593;DHT22;9426;54.118;17.948;2023-02-01T04:02:57;1.90;99.90
18593;DHT22;9426;54.118;17.948;2023-02-01T04:08:22;1.90;99.90
18593;DHT22;9426;54.118;17.948;2023-02-01T04:13:48;1.90;99.90
18593;DHT22;9426;54.118;17.948;2023-02-01T04:19:11;1.80;99.90
18593;DHT22;9426;54.118;17.948;2023-02-01T04:24:35;1.90;99.90
18593;DHT22;9426;54.118;17.948;2023-02-01T04:30:01;1.60;99.90
18593;DHT22;9426;54.118;17.948;2023-02-01T04:35:24;1.50;99.90
18593;DHT22;9426;54.118;17.948;2023-02-01T04:40:48;1.40;99.90
18593;DHT22;9426;54.118;17.948;2023-02-01T04:46:14;1.30;99.90
18593;DHT22;9426;54.118;17.948;2023-02-01T04:51:37;1.10;99.90
18593;DHT22;9426;54.118;17.948;2023-02-01T04:57:01;1.10;99.90
18593;DHT22;9426;54.118;17.948;2023-02-01T05:02:26;1.00;99.90
18593;DHT22;9426;54.118;17.948;2023-02-01T05:07:50;1.00;99.90
18593;DHT22;9426;54.118;17.948;2023-02-01T05:13:14;1.00;99.90
18593;DHT22;9426;54.118;17.948;2023-02-01T05:18:56;1.00;99.90
18593;DHT22;9426;54.118;17.948;2023-02-01T05:24:20;1.10;99.90
18593;DHT22;9426;54.118;17.948;2023-02-01T05:29:44;1.20;99.90
18593;DHT22;9426;54.118;17.948;2023-02-01T05:35:09;1.20;99.90
18593;DHT22;9426;54.118;17.948;2023-02-01T05:40:33;1.20;99.90
18593;DHT22;9426;54.118;17.948;2023-02-01T05:45:57;1.10;99.90
18593;DHT22;9426;54.118;17.948;2023-02-01T05:51:22;1.20;99.90
18593;DHT22;9426;54.118;17.948;2023-02-01T05:56:46;1.40;99.90
18593;DHT22;9426;54.118;17.948;2023-02-01T06:02:10;1.60;99.90
18593;DHT22;9426;54.118;17.948;2023-02-01T06:07:35;1.80;99.90
18593;DHT22;9426;54.118;17.948;2023-02-01T06:12:59;1.90;99.90
18593;DHT22;9426;54.118;17.948;2023-02-01T06:18:23;1.90;99.90
18593;DHT22;9426;54.118;17.948;2023-02-01T06:23:48;2.00;99.90
18593;DHT22;9426;54.118;17.948;2023-02-01T06:29:12;2.00;99.90
18593;DHT22;9426;54.118;17.948;2023-02-01T06:34:36;2.10;99.90
18593;DHT22;9426;54.118;17.948;2023-02-01T06:40:03;2.20;99.90
18593;DHT22;9426;54.118;17.948;2023-02-01T06:45:27;2.20;99.90
18593;DHT22;9426;54.118;17.948;2023-02-01T06:50:51;2.10;99.90
18593;DHT22;9426;54.118;17.948;2023-02-01T06:56:16;2.00;99.90
18593;DHT22;9426;54.118;17.948;2023-02-01T07:01:41;1.90;99.90
18593;DHT22;9426;54.118;17.948;2023-02-01T07:07:05;1.90;99.90
18593;DHT22;9426;54.118;17.948;2023-02-01T07:12:29;2.00;99.90
18593;DHT22;9426;54.118;17.948;2023-02-01T07:17:54;1.80;99.90
18593;DHT22;9426;54.118;17.948;2023-02-01T07:23:18;1.50;99.90
18593;DHT22;9426;54.118;17.948;2023-02-01T07:28:44;1.50;99.90
18593;DHT22;9426;54.118;17.948;2023-02-01T07:34:08;1.60;99.90
18593;DHT22;9426;54.118;17.948;2023-02-01T07:39:32;1.80;99.90
18593;DHT22;9426;54.118;17.948;2023-02-01T07:44:57;2.10;99.90
18593;DHT22;9426;54.118;17.948;2023-02-01T07:50:35;2.30;99.90
18593;DHT22;9426;54.118;17.948;2023-02-01T07:56:00;2.40;99.90
18593;DHT22;9426;54.118;17.948;2023-02-01T08:01:27;2.50;99.90
18593;DHT22;9426;54.118;17.948;2023-02-01T08:06:51;2.40;99.90
18593;DHT22;9426;54.118;17.948;2023-02-01T08:12:14;2.30;99.90
18593;DHT22;9426;54.118;17.948;2023-02-01T08:17:40;2.20;99.90
18593;DHT22;9426;54.118;17.948;2023-02-01T08:23:08;2.10;99.90
18593;DHT22;9426;54.118;17.948;2023-02-01T08:28:31;2.20;99.90
18593;DHT22;9426;54.118;17.948;2023-02-01T08:34:00;2.30;99.90
18593;DHT22;9426;54.118;17.948;2023-02-01T08:39:25;2.40;99.90
18593;DHT22;9426;54.118;17.948;2023-02-01T08:44:49;2.50;99.90
18593;DHT22;9426;54.118;17.948;2023-02-01T08:50:15;2.50;99.90
18593;DHT22;9426;54.118;17.948;2023-02-01T08:55:39;2.30;99.90
18593;DHT22;9426;54.118;17.948;2023-02-01T09:01:05;2.40;99.90
18593;DHT22;9426;54.118;17.948;2023-02-01T09:06:30;2.50;99.90
18593;DHT22;9426;54.118;17.948;2023-02-01T09:11:54;2.60;99.90
18593;DHT22;9426;54.118;17.948;2023-02-01T09:17:18;2.60;99.90
18593;DHT22;9426;54.118;17.948;2023-02-01T09:22:43;2.70;99.90
18593;DHT22;9426;54.118;17.948;2023-02-01T09:28:08;2.90;99.90
18593;DHT22;9426;54.118;17.948;2023-02-01T09:33:31;2.90;99.90
18593;DHT22;9426;54.118;17.948;2023-02-01T09:38:57;2.90;99.90
18593;DHT22;9426;54.118;17.948;2023-02-01T09:44:32;2.90;99.90
18593;DHT22;9426;54.118;17.948;2023-02-01T09:50:09;3.10;99.90
18593;DHT22;9426;54.118;17.948;2023-02-01T09:55:40;2.90;99.90
18593;DHT22;9426;54.118;17.948;2023-02-01T10:01:12;2.80;99.90
18593;DHT22;9426;54.118;17.948;2023-02-01T10:06:43;3.00;99.90
18593;DHT22;9426;54.118;17.948;2023-02-01T10:18:37;3.10;99.90
18593;DHT22;9426;54.118;17.948;2023-02-01T10:24:16;3.20;99.90
18593;DHT22;9426;54.118;17.948;2023-02-01T10:29:44;3.30;99.90
18593;DHT22;9426;54.118;17.948;2023-02-01T10:35:15;3.30;99.90
18593;DHT22;9426;54.118;17.948;2023-02-01T10:40:39;3.00;99.90
18593;DHT22;9426;54.118;17.948;2023-02-01T10:46:05;3.10;99.90
18593;DHT22;9426;54.118;17.948;2023-02-01T10:51:41;3.00;99.90
18593;DHT22;9426;54.118;17.948;2023-02-01T10:57:08;2.90;99.90
18593;DHT22;9426;54.118;17.948;2023-02-01T11:02:35;2.80;99.90
18593;DHT22;9426;54.118;17.948;2023-02-01T11:07:58;2.90;99.90
18593;DHT22;9426;54.118;17.948;2023-02-01T11:13:28;2.90;99.90
18593;DHT22;9426;54.118;17.948;2023-02-01T11:18:54;3.00;99.90
18593;DHT22;9426;54.118;17.948;2023-02-01T11:24:23;3.20;99.90
18593;DHT22;9426;54.118;17.948;2023-02-01T11:29:50;3.20;99.90
18593;DHT22;9426;54.118;17.948;2023-02-01T11:35:18;3.30;99.90
18593;DHT22;9426;54.118;17.948;2023-02-01T11:40:43;3.30;99.90
18593;DHT22;9426;54.118;17.948;2023-02-01T11:46:17;3.40;99.90
18593;DHT22;9426;54.118;17.948;2023-02-01T11:52:02;3.40;99.90
18593;DHT22;9426;54.118;17.948;2023-02-01T11:57:38;3.30;99.90
18593;DHT22;9426;54.118;17.948;2023-02-01T12:09:46;3.10;99.90
18593;DHT22;9426;54.118;17.948;2023-02-01T12:15:34;3.10;99.90
18593;DHT22;9426;54.118;17.948;2023-02-01T12:21:17;3.00;99.90
18593;DHT22;9426;54.118;17.948;2023-02-01T12:26:54;3.00;99.90
18593;DHT22;9426;54.118;17.948;2023-02-01T12:32:32;3.10;99.90
18593;DHT22;9426;54.118;17.948;2023-02-01T12:38:11;3.00;99.90
18593;DHT22;9426;54.118;17.948;2023-02-01T12:43:45;3.10;99.90
18593;DHT22;9426;54.118;17.948;2023-02-01T12:49:14;3.10;99.90
18593;DHT22;9426;54.118;17.948;2023-02-01T12:54:43;3.30;99.90
18593;DHT22;9426;54.118;17.948;2023-02-01T13:00:19;3.50;99.90
18593;DHT22;9426;54.118;17.948;2023-02-01T13:05:50;3.40;99.90
18593;DHT22;9426;54.118;17.948;2023-02-01T13:11:18;3.50;99.90
18593;DHT22;9426;54.118;17.948;2023-02-01T13:16:47;3.60;99.90
18593;DHT22;9426;54.118;17.948;2023-02-01T13:22:13;3.50;99.90
18593;DHT22;9426;54.118;17.948;2023-02-01T13:27:39;3.50;99.90
18593;DHT22;9426;54.118;17.948;2023-02-01T13:33:19;3.30;99.90
18593;DHT22;9426;54.118;17.948;2023-02-01T13:39:16;3.40;99.90
18593;DHT22;9426;54.118;17.948;2023-02-01T13:44:46;3.20;99.90
18593;DHT22;9426;54.118;17.948;2023-02-01T13:50:21;3.20;99.90
18593;DHT22;9426;54.118;17.948;2023-02-01T13:55:46;3.10;99.90
18593;DHT22;9426;54.118;17.948;2023-02-01T14:01:36;3.20;99.90
18593;DHT22;9426;54.118;17.948;2023-02-01T14:07:01;3.20;99.90
18593;DHT22;9426;54.118;17.948;2023-02-01T14:12:46;3.20;99.90
18593;DHT22;9426;54.118;17.948;2023-02-01T14:24:25;3.10;99.90
18593;DHT22;9426;54.118;17.948;2023-02-01T14:29:52;3.20;99.90
18593;DHT22;9426;54.118;17.948;2023-02-01T14:35:21;3.00;99.90
18593;DHT22;9426;54.118;17.948;2023-02-01T14:40:48;3.00;99.90
18593;DHT22;9426;54.118;17.948;2023-02-01T14:46:12;3.00;99.90
18593;DHT22;9426;54.118;17.948;2023-02-01T14:51:35;3.00;99.90
18593;DHT22;9426;54.118;17.948;2023-02-01T14:57:02;3.10;99.90
18593;DHT22;9426;54.118;17.948;2023-02-01T15:02:27;3.10;99.90
18593;DHT22;9426;54.118;17.948;2023-02-01T15:07:52;3.10;99.90
18593;DHT22;9426;54.118;17.948;2023-02-01T15:13:22;3.00;99.90
18593;DHT22;9426;54.118;17.948;2023-02-01T15:18:46;3.10;99.90
18593;DHT22;9426;54.118;17.948;2023-02-01T15:24:11;3.10;99.90
18593;DHT22;9426;54.118;17.948;2023-02-01T15:29:36;3.00;99.90
18593;DHT22;9426;54.118;17.948;2023-02-01T15:35:00;3.00;99.90
18593;DHT22;9426;54.118;17.948;2023-02-01T15:40:25;3.00;99.90
18593;DHT22;9426;54.118;17.948;2023-02-01T15:45:50;3.00;99.90
18593;DHT22;9426;54.118;17.948;2023-02-01T15:51:17;3.00;99.90
18593;DHT22;9426;54.118;17.948;2023-02-01T15:56:41;3.10;99.90
18593;DHT22;9426;54.118;17.948;2023-02-01T16:02:28;3.10;99.90
18593;DHT22;9426;54.118;17.948;2023-02-01T16:08:00;3.00;99.90
18593;DHT22;9426;54.118;17.948;2023-02-01T16:13:26;3.00;99.90
18593;DHT22;9426;54.118;17.948;2023-02-01T16:18:51;3.10;99.90
18593;DHT22;9426;54.118;17.948;2023-02-01T16:24:15;3.10;99.90
18593;DHT22;9426;54.118;17.948;2023-02-01T16:29:38;3.00;99.90
18593;DHT22;9426;54.118;17.948;2023-02-01T16:35:08;3.00;99.90
18593;DHT22;9426;54.118;17.948;2023-02-01T16:40:38;3.00;99.90
18593;DHT22;9426;54.118;17.948;2023-02-01T16:46:01;3.00;99.90
18593;DHT22;9426;54.118;17.948;2023-02-01T16:51:30;3.00;99.90
18593;DHT22;9426;54.118;17.948;2023-02-01T16:56:54;3.00;99.90
18593;DHT22;9426;54.118;17.948;2023-02-01T17:02:19;3.10;99.90
18593;DHT22;9426;54.118;17.948;2023-02-01T17:07:45;3.00;99.90
18593;DHT22;9426;54.118;17.948;2023-02-01T17:13:13;3.00;99.90
18593;DHT22;9426;54.118;17.948;2023-02-01T17:18:38;3.00;99.90
18593;DHT22;9426;54.118;17.948;2023-02-01T17:24:04;2.90;99.90
18593;DHT22;9426;54.118;17.948;2023-02-01T17:29:28;3.00;99.90
18593;DHT22;9426;54.118;17.948;2023-02-01T17:34:52;2.90;99.90
18593;DHT22;9426;54.118;17.948;2023-02-01T17:40:18;2.70;99.90
18593;DHT22;9426;54.118;17.948;2023-02-01T17:45:45;2.50;99.90
18593;DHT22;9426;54.118;17.948;2023-02-01T17:51:22;2.30;99.90
18593;DHT22;9426;54.118;17.948;2023-02-01T17:56:49;2.20;99.90
18593;DHT22;9426;54.118;17.948;2023-02-01T18:02:19;2.20;99.90
18593;DHT22;9426;54.118;17.948;2023-02-01T18:07:44;2.10;99.90
18593;DHT22;9426;54.118;17.948;2023-02-01T18:13:10;2.20;99.90
18593;DHT22;9426;54.118;17.948;2023-02-01T18:18:34;2.30;99.90
18593;DHT22;9426;54.118;17.948;2023-02-01T18:24:00;2.40;99.90
18593;DHT22;9426;54.118;17.948;2023-02-01T18:29:26;2.50;99.90
18593;DHT22;9426;54.118;17.948;2023-02-01T18:34:49;2.60;99.90
18593;DHT22;9426;54.118;17.948;2023-02-01T18:40:15;2.60;99.90
18593;DHT22;9426;54.118;17.948;2023-02-01T18:45:48;2.60;99.90
18593;DHT22;9426;54.118;17.948;2023-02-01T18:51:15;2.60;99.90
18593;DHT22;9426;54.118;17.948;2023-02-01T18:56:41;2.70;99.90
18593;DHT22;9426;54.118;17.948;2023-02-01T19:02:08;2.60;99.90
18593;DHT22;9426;54.118;17.948;2023-02-01T19:07:38;2.50;99.90
18593;DHT22;9426;54.118;17.948;2023-02-01T19:13:04;2.50;99.90
18593;DHT22;9426;54.118;17.948;2023-02-01T19:18:32;2.50;99.90
18593;DHT22;9426;54.118;17.948;2023-02-01T19:24:01;2.40;99.90
18593;DHT22;9426;54.118;17.948;2023-02-01T19:29:27;2.40;99.90
18593;DHT22;9426;54.118;17.948;2023-02-01T19:34:53;2.50;99.90
18593;DHT22;9426;54.118;17.948;2023-02-01T19:40:19;2.30;99.90
18593;DHT22;9426;54.118;17.948;2023-02-01T19:45:43;2.30;99.90
18593;DHT22;9426;54.118;17.948;2023-02-01T19:51:10;2.30;99.90
18593;DHT22;9426;54.118;17.948;2023-02-01T19:56:35;2.20;99.90
18593;DHT22;9426;54.118;17.948;2023-02-01T20:02:00;2.30;99.90
18593;DHT22;9426;54.118;17.948;2023-02-01T20:07:28;2.20;99.90
18593;DHT22;9426;54.118;17.948;2023-02-01T20:12:52;2.20;99.90
18593;DHT22;9426;54.118;17.948;2023-02-01T20:18:17;2.20;99.90
18593;DHT22;9426;54.118;17.948;2023-02-01T20:23:42;2.30;99.90
18593;DHT22;9426;54.118;17.948;2023-02-01T20:29:09;2.30;99.90
18593;DHT22;9426;54.118;17.948;2023-02-01T20:34:34;2.30;99.90
18593;DHT22;9426;54.118;17.948;2023-02-01T20:40:00;2.40;99.90
18593;DHT22;9426;54.118;17.948;2023-02-01T20:45:24;2.40;99.90
18593;DHT22;9426;54.118;17.948;2023-02-01T20:50:52;2.40;99.90
18593;DHT22;9426;54.118;17.948;2023-02-01T20:56:18;2.40;99.90
18593;DHT22;9426;54.118;17.948;2023-02-01T21:01:42;2.50;99.90
18593;DHT22;9426;54.118;17.948;2023-02-01T21:07:14;2.40;99.90
18593;DHT22;9426;54.118;17.948;2023-02-01T21:12:39;2.50;99.90
18593;DHT22;9426;54.118;17.948;2023-02-01T21:18:05;2.40;99.90
18593;DHT22;9426;54.118;17.948;2023-02-01T21:23:30;2.30;99.90
18593;DHT22;9426;54.118;17.948;2023-02-01T21:28:56;2.30;99.90
18593;DHT22;9426;54.118;17.948;2023-02-01T21:34:20;2.20;99.90
18593;DHT22;9426;54.118;17.948;2023-02-01T21:39:43;2.10;99.90
18593;DHT22;9426;54.118;17.948;2023-02-01T21:45:09;2.00;99.90
18593;DHT22;9426;54.118;17.948;2023-02-01T21:50:34;1.70;99.90
18593;DHT22;9426;54.118;17.948;2023-02-01T21:55:57;1.40;99.90
18593;DHT22;9426;54.118;17.948;2023-02-01T22:01:23;1.30;99.90
18593;DHT22;9426;54.118;17.948;2023-02-01T22:06:47;1.20;99.90
18593;DHT22;9426;54.118;17.948;2023-02-01T22:12:11;1.30;99.90
18593;DHT22;9426;54.118;17.948;2023-02-01T22:17:37;1.20;99.90
18593;DHT22;9426;54.118;17.948;2023-02-01T22:23:01;1.20;99.90
18593;DHT22;9426;54.118;17.948;2023-02-01T22:28:24;1.20;99.90
18593;DHT22;9426;54.118;17.948;2023-02-01T22:33:50;1.20;99.90
18593;DHT22;9426;54.118;17.948;2023-02-01T22:39:14;1.20;99.90
18593;DHT22;9426;54.118;17.948;2023-02-01T22:44:37;1.20;99.90
18593;DHT22;9426;54.118;17.948;2023-02-01T22:50:04;1.20;99.90
18593;DHT22;9426;54.118;17.948;2023-02-01T22:55:28;1.30;99.90
18593;DHT22;9426;54.118;17.948;2023-02-01T23:00:53;1.20;99.90
18593;DHT22;9426;54.118;17.948;2023-02-01T23:06:18;1.30;99.90
18593;DHT22;9426;54.118;17.948;2023-02-01T23:11:42;1.30;99.90
18593;DHT22;9426;54.118;17.948;2023-02-01T23:17:06;1.30;99.90
18593;DHT22;9426;54.118;17.948;2023-02-01T23:22:31;1.40;99.90
18593;DHT22;9426;54.118;17.948;2023-02-01T23:27:55;1.50;99.90
18593;DHT22;9426;54.118;17.948;2023-02-01T23:33:21;1.50;99.90
18593;DHT22;9426;54.118;17.948;2023-02-01T23:38:46;1.70;99.90
18593;DHT22;9426;54.118;17.948;2023-02-01T23:44:10;1.70;99.90
18593;DHT22;9426;54.118;17.948;2023-02-01T23:49:34;1.80;99.90
18593;DHT22;9426;54.118;17.948;2023-02-01T23:54:59;1.90;99.90
